Αρχική σελίδα
METAR-TAF:

METAR-TAF

Αεροδρόμια :

Ντζαμένα, Τσαντ

γεωγραφικό πλάτος: 12-08N, γεωγραφικό μήκος: 015-02E, υψόμετρο: 295 μ

Παρών καιρός

Η αναφορά έγινε 1 ώρα και 8 λεπτά πριν, στις 23:00 UTC
Άνεμος 3 kt από Ν/NA
Θερμοκρασία 27°C
Υγρασία 89%
Πίεση 1012 hPa
Ορατότητα 10 χλμ και άνω
Λίγα νέφη σε ύψος 3000 πόδια
Λίγα νέφη σε ύψος 4000 πόδια, Σωρειτομελανίτες.
καταιγίδα

METAR: FTTJ 162300Z 16003KT 9999 TS FEW030 FEW040CB 27/25 Q1012 NOSIG

Χρόνος: 01:08 (00:08 UTC)

Πρόγνωση Καιρού

Η αναφορά έγινε 1 ώρα και 8 λεπτά πριν, στις 23:00 UTC
Η πρόγνωση ισχύει από τις 17 στις 00 UTC έως τις 18 στις 06 UTC
Άνεμος 6 kt από ΝΔ
Ορατότητα 10 χλμ και άνω
Λίγα νέφη σε ύψος 3000 πόδια
Προσωρινά
από 17 στις 15 UTC έως τις 17 στις 21 UTC
Ορατότητα: 4000 μ
καταιγίδα, βροχή

TAF: FTTJ 162300Z 1700/1806 22006KT 9999 FEW030 TEMPO 1715/1721 4000 TSRA

Μετεωρολογικές αναφορές και προγνώσεις για περισσότερα από 4000 αεροδρόμια (δελτία METAR και TAF).

Οι διαθέσιμοι σταθμοί απεικονίζονται στο χάρτη με κίτρινες και κόκκινες κουκκίδες.

Μετακινήστε το ποντίκι πάνω από τις κουκκίδες για να δείτε το όνομα του σταθμού.

Στη συνέχεια, κάντε κλικ για να δείτε τις μετεωρολογικές αναφορές και τις προγνώσεις καιρού.

Για να αλλάξετε το χάρτη: κάντε κλικ στα πράσινα κουμπιά με τον μαύρο σταυρό για να ζουμάρετε, στο πράσινο κουμπί με την παύλα για να αφαιρέσετε το ζουμ ή στα πράσινα βέλη για να αντιπαραβάλλετε χάρτες.


METAR-TAF: